sensor_id;sensor_type;location;lat;lon;timestamp;P1;durP1;ratioP1;P2;durP2;ratioP2
63534;SDS011;55128;50.230;18.944;2023-09-19T00:06:46;16.85;;;15.15;;
63534;SDS011;55128;50.230;18.944;2023-09-19T00:11:47;17.15;;;15.40;;
63534;SDS011;55128;50.230;18.944;2023-09-19T00:16:50;16.02;;;14.43;;
63534;SDS011;55128;50.230;18.944;2023-09-19T00:21:50;17.43;;;15.27;;
63534;SDS011;55128;50.230;18.944;2023-09-19T00:26:50;16.02;;;14.60;;
63534;SDS011;55128;50.230;18.944;2023-09-19T00:31:50;16.33;;;14.73;;
63534;SDS011;55128;50.230;18.944;2023-09-19T00:36:51;15.35;;;13.95;;
63534;SDS011;55128;50.230;18.944;2023-09-19T00:41:53;16.40;;;14.80;;
63534;SDS011;55128;50.230;18.944;2023-09-19T00:46:54;16.30;;;14.80;;
63534;SDS011;55128;50.230;18.944;2023-09-19T00:51:55;16.50;;;14.90;;
63534;SDS011;55128;50.230;18.944;2023-09-19T00:56:55;16.33;;;14.73;;
63534;SDS011;55128;50.230;18.944;2023-09-19T01:01:56;16.27;;;14.65;;
63534;SDS011;55128;50.230;18.944;2023-09-19T01:06:56;16.40;;;14.80;;
63534;SDS011;55128;50.230;18.944;2023-09-19T01:11:58;15.18;;;13.68;;
63534;SDS011;55128;50.230;18.944;2023-09-19T01:17:14;16.77;;;14.77;;
63534;SDS011;55128;50.230;18.944;2023-09-19T01:22:37;17.05;;;15.32;;
63534;SDS011;55128;50.230;18.944;2023-09-19T01:27:53;16.90;;;15.15;;
63534;SDS011;55128;50.230;18.944;2023-09-19T01:32:59;18.13;;;15.15;;
63534;SDS011;55128;50.230;18.944;2023-09-19T01:38:00;16.35;;;14.85;;
63534;SDS011;55128;50.230;18.944;2023-09-19T01:43:17;17.98;;;16.08;;
63534;SDS011;55128;50.230;18.944;2023-09-19T01:53:51;17.65;;;15.95;;
63534;SDS011;55128;50.230;18.944;2023-09-19T01:58:57;16.83;;;15.20;;
63534;SDS011;55128;50.230;18.944;2023-09-19T02:04:04;16.42;;;14.82;;
63534;SDS011;55128;50.230;18.944;2023-09-19T02:09:04;16.30;;;14.60;;
63534;SDS011;55128;50.230;18.944;2023-09-19T02:14:04;16.17;;;14.57;;
63534;SDS011;55128;50.230;18.944;2023-09-19T02:19:08;16.75;;;15.15;;
63534;SDS011;55128;50.230;18.944;2023-09-19T02:24:08;17.13;;;15.63;;
63534;SDS011;55128;50.230;18.944;2023-09-19T02:29:10;17.55;;;15.80;;
63534;SDS011;55128;50.230;18.944;2023-09-19T02:34:12;17.52;;;15.68;;
63534;SDS011;55128;50.230;18.944;2023-09-19T02:39:13;17.20;;;15.57;;
63534;SDS011;55128;50.230;18.944;2023-09-19T02:44:14;17.27;;;15.57;;
63534;SDS011;55128;50.230;18.944;2023-09-19T02:49:14;17.30;;;15.50;;
63534;SDS011;55128;50.230;18.944;2023-09-19T02:54:15;16.85;;;15.15;;
63534;SDS011;55128;50.230;18.944;2023-09-19T03:04:19;16.50;;;14.80;;
63534;SDS011;55128;50.230;18.944;2023-09-19T03:09:20;16.70;;;14.77;;
63534;SDS011;55128;50.230;18.944;2023-09-19T03:14:20;16.20;;;14.63;;
63534;SDS011;55128;50.230;18.944;2023-09-19T03:19:21;17.17;;;15.00;;
63534;SDS011;55128;50.230;18.944;2023-09-19T03:24:23;17.85;;;14.85;;
63534;SDS011;55128;50.230;18.944;2023-09-19T03:29:23;17.75;;;15.93;;
63534;SDS011;55128;50.230;18.944;2023-09-19T03:34:25;18.27;;;16.30;;
63534;SDS011;55128;50.230;18.944;2023-09-19T03:39:25;17.80;;;16.10;;
63534;SDS011;55128;50.230;18.944;2023-09-19T03:44:26;18.13;;;16.42;;
63534;SDS011;55128;50.230;18.944;2023-09-19T03:49:26;19.17;;;16.80;;
63534;SDS011;55128;50.230;18.944;2023-09-19T03:54:26;19.70;;;17.60;;
63534;SDS011;55128;50.230;18.944;2023-09-19T03:59:27;20.40;;;18.27;;
63534;SDS011;55128;50.230;18.944;2023-09-19T04:04:29;21.23;;;18.70;;
63534;SDS011;55128;50.230;18.944;2023-09-19T04:09:29;23.33;;;20.88;;
63534;SDS011;55128;50.230;18.944;2023-09-19T04:14:30;21.53;;;19.27;;
63534;SDS011;55128;50.230;18.944;2023-09-19T04:19:30;22.90;;;20.57;;
63534;SDS011;55128;50.230;18.944;2023-09-19T04:24:31;24.30;;;21.83;;
63534;SDS011;55128;50.230;18.944;2023-09-19T04:29:32;24.90;;;22.50;;
63534;SDS011;55128;50.230;18.944;2023-09-19T04:34:33;26.15;;;23.38;;
63534;SDS011;55128;50.230;18.944;2023-09-19T04:39:34;23.63;;;21.33;;
63534;SDS011;55128;50.230;18.944;2023-09-19T04:44:34;24.93;;;22.37;;
63534;SDS011;55128;50.230;18.944;2023-09-19T04:49:36;25.00;;;22.50;;
63534;SDS011;55128;50.230;18.944;2023-09-19T04:54:36;24.58;;;21.98;;
63534;SDS011;55128;50.230;18.944;2023-09-19T04:59:37;24.58;;;22.00;;
63534;SDS011;55128;50.230;18.944;2023-09-19T05:04:38;25.60;;;22.70;;
63534;SDS011;55128;50.230;18.944;2023-09-19T05:09:38;27.35;;;24.45;;
63534;SDS011;55128;50.230;18.944;2023-09-19T05:14:39;25.65;;;23.13;;
63534;SDS011;55128;50.230;18.944;2023-09-19T05:19:40;25.35;;;22.75;;
63534;SDS011;55128;50.230;18.944;2023-09-19T05:24:40;28.20;;;23.77;;
63534;SDS011;55128;50.230;18.944;2023-09-19T05:29:41;25.10;;;22.60;;
63534;SDS011;55128;50.230;18.944;2023-09-19T05:34:42;25.00;;;22.50;;
63534;SDS011;55128;50.230;18.944;2023-09-19T05:39:44;25.40;;;22.80;;
63534;SDS011;55128;50.230;18.944;2023-09-19T05:44:44;26.60;;;24.02;;
63534;SDS011;55128;50.230;18.944;2023-09-19T05:49:44;26.73;;;23.85;;
63534;SDS011;55128;50.230;18.944;2023-09-19T05:54:45;24.60;;;22.07;;
63534;SDS011;55128;50.230;18.944;2023-09-19T05:59:45;25.00;;;22.58;;
63534;SDS011;55128;50.230;18.944;2023-09-19T06:04:46;22.75;;;20.55;;
63534;SDS011;55128;50.230;18.944;2023-09-19T06:09:46;22.80;;;19.88;;
63534;SDS011;55128;50.230;18.944;2023-09-19T06:14:47;20.92;;;18.83;;
63534;SDS011;55128;50.230;18.944;2023-09-19T06:19:48;20.38;;;18.48;;
63534;SDS011;55128;50.230;18.944;2023-09-19T06:24:50;20.70;;;18.17;;
63534;SDS011;55128;50.230;18.944;2023-09-19T06:29:50;17.17;;;15.23;;
63534;SDS011;55128;50.230;18.944;2023-09-19T06:34:52;17.10;;;15.40;;
63534;SDS011;55128;50.230;18.944;2023-09-19T06:39:54;16.73;;;13.88;;
63534;SDS011;55128;50.230;18.944;2023-09-19T06:44:54;14.07;;;12.55;;
63534;SDS011;55128;50.230;18.944;2023-09-19T06:49:56;14.95;;;10.30;;
63534;SDS011;55128;50.230;18.944;2023-09-19T06:54:56;11.65;;;8.75;;
63534;SDS011;55128;50.230;18.944;2023-09-19T06:59:57;9.52;;;7.93;;
63534;SDS011;55128;50.230;18.944;2023-09-19T07:04:57;7.38;;;6.22;;
63534;SDS011;55128;50.230;18.944;2023-09-19T07:09:57;7.22;;;5.63;;
63534;SDS011;55128;50.230;18.944;2023-09-19T07:14:58;9.63;;;5.93;;
63534;SDS011;55128;50.230;18.944;2023-09-19T07:19:58;7.20;;;5.05;;
63534;SDS011;55128;50.230;18.944;2023-09-19T07:24:59;6.65;;;5.05;;
63534;SDS011;55128;50.230;18.944;2023-09-19T07:29:59;6.93;;;4.40;;
63534;SDS011;55128;50.230;18.944;2023-09-19T07:34:59;6.97;;;4.07;;
63534;SDS011;55128;50.230;18.944;2023-09-19T07:40:00;6.03;;;3.77;;
63534;SDS011;55128;50.230;18.944;2023-09-19T07:45:07;7.18;;;4.15;;
63534;SDS011;55128;50.230;18.944;2023-09-19T07:50:08;6.22;;;3.70;;
63534;SDS011;55128;50.230;18.944;2023-09-19T07:55:09;7.57;;;3.80;;
63534;SDS011;55128;50.230;18.944;2023-09-19T08:00:11;5.57;;;3.10;;
63534;SDS011;55128;50.230;18.944;2023-09-19T08:05:12;5.68;;;4.18;;
63534;SDS011;55128;50.230;18.944;2023-09-19T08:10:16;8.23;;;4.63;;
63534;SDS011;55128;50.230;18.944;2023-09-19T08:15:19;7.87;;;4.50;;
63534;SDS011;55128;50.230;18.944;2023-09-19T08:20:20;7.82;;;4.68;;
63534;SDS011;55128;50.230;18.944;2023-09-19T08:25:22;7.70;;;4.40;;
63534;SDS011;55128;50.230;18.944;2023-09-19T08:30:23;5.05;;;4.53;;
63534;SDS011;55128;50.230;18.944;2023-09-19T08:35:24;5.35;;;4.70;;
63534;SDS011;55128;50.230;18.944;2023-09-19T08:40:24;6.07;;;4.10;;
63534;SDS011;55128;50.230;18.944;2023-09-19T08:45:29;7.35;;;4.90;;
63534;SDS011;55128;50.230;18.944;2023-09-19T08:50:31;6.65;;;5.10;;
63534;SDS011;55128;50.230;18.944;2023-09-19T08:55:33;6.95;;;5.45;;
63534;SDS011;55128;50.230;18.944;2023-09-19T09:00:34;5.68;;;5.05;;
63534;SDS011;55128;50.230;18.944;2023-09-19T09:05:35;5.72;;;5.00;;
63534;SDS011;55128;50.230;18.944;2023-09-19T09:10:37;7.03;;;4.70;;
63534;SDS011;55128;50.230;18.944;2023-09-19T09:15:37;4.35;;;3.80;;
63534;SDS011;55128;50.230;18.944;2023-09-19T09:20:38;4.43;;;4.03;;
63534;SDS011;55128;50.230;18.944;2023-09-19T09:30:56;8.32;;;4.10;;
63534;SDS011;55128;50.230;18.944;2023-09-19T09:36:02;5.15;;;3.72;;
63534;SDS011;55128;50.230;18.944;2023-09-19T09:41:05;5.75;;;3.60;;
63534;SDS011;55128;50.230;18.944;2023-09-19T09:46:08;5.60;;;3.70;;
63534;SDS011;55128;50.230;18.944;2023-09-19T09:51:29;5.78;;;3.70;;
63534;SDS011;55128;50.230;18.944;2023-09-19T10:02:04;4.57;;;3.67;;
63534;SDS011;55128;50.230;18.944;2023-09-19T10:07:04;4.18;;;3.13;;
63534;SDS011;55128;50.230;18.944;2023-09-19T10:12:11;3.50;;;3.05;;
63534;SDS011;55128;50.230;18.944;2023-09-19T10:17:13;6.13;;;3.45;;
63534;SDS011;55128;50.230;18.944;2023-09-19T10:22:20;6.97;;;3.22;;
63534;SDS011;55128;50.230;18.944;2023-09-19T10:27:22;4.78;;;3.38;;
63534;SDS011;55128;50.230;18.944;2023-09-19T10:32:26;5.13;;;4.57;;
63534;SDS011;55128;50.230;18.944;2023-09-19T10:37:33;5.50;;;3.30;;
63534;SDS011;55128;50.230;18.944;2023-09-19T10:42:38;3.40;;;3.10;;
63534;SDS011;55128;50.230;18.944;2023-09-19T10:52:42;4.63;;;3.70;;
63534;SDS011;55128;50.230;18.944;2023-09-19T10:57:44;7.05;;;3.90;;
63534;SDS011;55128;50.230;18.944;2023-09-19T11:03:16;7.78;;;4.68;;
63534;SDS011;55128;50.230;18.944;2023-09-19T11:08:13;6.07;;;4.32;;
63534;SDS011;55128;50.230;18.944;2023-09-19T11:13:24;5.83;;;4.50;;
63534;SDS011;55128;50.230;18.944;2023-09-19T11:19:11;6.25;;;4.32;;
63534;SDS011;55128;50.230;18.944;2023-09-19T11:29:25;7.15;;;4.45;;
63534;SDS011;55128;50.230;18.944;2023-09-19T11:39:39;6.88;;;4.03;;
63534;SDS011;55128;50.230;18.944;2023-09-19T11:45:00;5.15;;;4.43;;
63534;SDS011;55128;50.230;18.944;2023-09-19T11:50:01;8.38;;;4.63;;
63534;SDS011;55128;50.230;18.944;2023-09-19T11:55:01;5.50;;;4.47;;
63534;SDS011;55128;50.230;18.944;2023-09-19T12:00:02;6.25;;;4.50;;
63534;SDS011;55128;50.230;18.944;2023-09-19T12:05:04;5.05;;;4.25;;
63534;SDS011;55128;50.230;18.944;2023-09-19T12:10:05;6.28;;;4.32;;
63534;SDS011;55128;50.230;18.944;2023-09-19T12:15:11;9.30;;;4.60;;
63534;SDS011;55128;50.230;18.944;2023-09-19T12:20:12;7.63;;;4.38;;
63534;SDS011;55128;50.230;18.944;2023-09-19T12:25:13;5.60;;;4.20;;
63534;SDS011;55128;50.230;18.944;2023-09-19T12:30:16;6.55;;;4.40;;
63534;SDS011;55128;50.230;18.944;2023-09-19T12:35:27;8.07;;;4.30;;
63534;SDS011;55128;50.230;18.944;2023-09-19T12:40:30;8.10;;;4.47;;
63534;SDS011;55128;50.230;18.944;2023-09-19T12:45:33;7.37;;;4.40;;
63534;SDS011;55128;50.230;18.944;2023-09-19T12:50:58;7.25;;;4.18;;
63534;SDS011;55128;50.230;18.944;2023-09-19T12:56:16;7.47;;;3.90;;
63534;SDS011;55128;50.230;18.944;2023-09-19T13:01:18;5.75;;;3.95;;
63534;SDS011;55128;50.230;18.944;2023-09-19T13:06:34;6.43;;;4.20;;
63534;SDS011;55128;50.230;18.944;2023-09-19T13:11:41;4.78;;;3.38;;
63534;SDS011;55128;50.230;18.944;2023-09-19T13:17:00;4.28;;;3.15;;
63534;SDS011;55128;50.230;18.944;2023-09-19T13:27:53;6.07;;;3.60;;
63534;SDS011;55128;50.230;18.944;2023-09-19T13:33:11;5.30;;;3.30;;
63534;SDS011;55128;50.230;18.944;2023-09-19T13:38:13;5.63;;;3.40;;
63534;SDS011;55128;50.230;18.944;2023-09-19T13:43:14;5.78;;;3.50;;
63534;SDS011;55128;50.230;18.944;2023-09-19T13:48:14;5.95;;;3.10;;
63534;SDS011;55128;50.230;18.944;2023-09-19T13:53:15;5.00;;;3.50;;
63534;SDS011;55128;50.230;18.944;2023-09-19T13:58:16;5.03;;;3.33;;
63534;SDS011;55128;50.230;18.944;2023-09-19T14:03:17;3.63;;;2.90;;
63534;SDS011;55128;50.230;18.944;2023-09-19T14:08:26;3.58;;;3.00;;
63534;SDS011;55128;50.230;18.944;2023-09-19T14:13:27;4.07;;;3.05;;
63534;SDS011;55128;50.230;18.944;2023-09-19T14:18:28;4.00;;;2.77;;
63534;SDS011;55128;50.230;18.944;2023-09-19T14:23:28;3.50;;;2.60;;
63534;SDS011;55128;50.230;18.944;2023-09-19T14:28:29;4.78;;;2.78;;
63534;SDS011;55128;50.230;18.944;2023-09-19T14:33:30;6.68;;;2.80;;
63534;SDS011;55128;50.230;18.944;2023-09-19T14:38:37;4.93;;;2.00;;
63534;SDS011;55128;50.230;18.944;2023-09-19T14:43:38;3.55;;;2.05;;
63534;SDS011;55128;50.230;18.944;2023-09-19T14:48:38;4.13;;;1.92;;
63534;SDS011;55128;50.230;18.944;2023-09-19T14:53:39;4.23;;;2.10;;
63534;SDS011;55128;50.230;18.944;2023-09-19T14:58:41;3.65;;;2.58;;
63534;SDS011;55128;50.230;18.944;2023-09-19T15:03:42;4.15;;;2.67;;
63534;SDS011;55128;50.230;18.944;2023-09-19T15:08:43;5.18;;;2.03;;
63534;SDS011;55128;50.230;18.944;2023-09-19T15:13:51;3.47;;;1.85;;
63534;SDS011;55128;50.230;18.944;2023-09-19T15:18:53;21.98;;;19.80;;
63534;SDS011;55128;50.230;18.944;2023-09-19T15:23:55;3.92;;;2.13;;
63534;SDS011;55128;50.230;18.944;2023-09-19T15:28:55;3.00;;;1.45;;
63534;SDS011;55128;50.230;18.944;2023-09-19T15:33:56;3.00;;;1.80;;
63534;SDS011;55128;50.230;18.944;2023-09-19T15:39:01;2.55;;;2.00;;
63534;SDS011;55128;50.230;18.944;2023-09-19T15:44:13;2.80;;;1.60;;
63534;SDS011;55128;50.230;18.944;2023-09-19T15:49:16;4.18;;;2.25;;
63534;SDS011;55128;50.230;18.944;2023-09-19T15:54:17;5.18;;;3.13;;
63534;SDS011;55128;50.230;18.944;2023-09-19T15:59:18;3.67;;;2.15;;
63534;SDS011;55128;50.230;18.944;2023-09-19T16:04:18;4.63;;;2.60;;
63534;SDS011;55128;50.230;18.944;2023-09-19T16:09:19;4.57;;;2.50;;
63534;SDS011;55128;50.230;18.944;2023-09-19T16:14:19;4.97;;;2.70;;
63534;SDS011;55128;50.230;18.944;2023-09-19T16:19:19;3.93;;;2.60;;
63534;SDS011;55128;50.230;18.944;2023-09-19T16:24:20;6.30;;;3.00;;
63534;SDS011;55128;50.230;18.944;2023-09-19T16:29:20;4.63;;;3.33;;
63534;SDS011;55128;50.230;18.944;2023-09-19T16:34:24;4.68;;;3.08;;
63534;SDS011;55128;50.230;18.944;2023-09-19T16:39:25;3.78;;;3.00;;
63534;SDS011;55128;50.230;18.944;2023-09-19T16:44:26;5.60;;;3.30;;
63534;SDS011;55128;50.230;18.944;2023-09-19T16:49:26;5.57;;;3.30;;
63534;SDS011;55128;50.230;18.944;2023-09-19T16:54:28;4.57;;;3.38;;
63534;SDS011;55128;50.230;18.944;2023-09-19T16:59:29;5.43;;;4.30;;
63534;SDS011;55128;50.230;18.944;2023-09-19T17:04:29;4.40;;;3.60;;
63534;SDS011;55128;50.230;18.944;2023-09-19T17:09:31;4.53;;;3.83;;
63534;SDS011;55128;50.230;18.944;2023-09-19T17:14:35;4.55;;;4.00;;
63534;SDS011;55128;50.230;18.944;2023-09-19T17:19:35;5.75;;;4.68;;
63534;SDS011;55128;50.230;18.944;2023-09-19T17:24:36;5.63;;;4.17;;
63534;SDS011;55128;50.230;18.944;2023-09-19T17:29:36;4.70;;;3.50;;
63534;SDS011;55128;50.230;18.944;2023-09-19T17:34:36;5.10;;;4.33;;
63534;SDS011;55128;50.230;18.944;2023-09-19T17:39:37;4.83;;;3.63;;
63534;SDS011;55128;50.230;18.944;2023-09-19T17:44:37;5.90;;;4.35;;
63534;SDS011;55128;50.230;18.944;2023-09-19T17:49:38;4.38;;;3.65;;
63534;SDS011;55128;50.230;18.944;2023-09-19T17:54:39;4.57;;;3.80;;
63534;SDS011;55128;50.230;18.944;2023-09-19T17:59:39;4.90;;;4.07;;
63534;SDS011;55128;50.230;18.944;2023-09-19T18:04:39;6.60;;;3.83;;
63534;SDS011;55128;50.230;18.944;2023-09-19T18:09:40;5.88;;;3.95;;
63534;SDS011;55128;50.230;18.944;2023-09-19T18:14:41;8.02;;;4.57;;
63534;SDS011;55128;50.230;18.944;2023-09-19T18:19:41;5.27;;;4.07;;
63534;SDS011;55128;50.230;18.944;2023-09-19T18:24:42;7.63;;;4.50;;
63534;SDS011;55128;50.230;18.944;2023-09-19T18:29:42;10.03;;;7.87;;
63534;SDS011;55128;50.230;18.944;2023-09-19T18:34:45;8.43;;;6.35;;
63534;SDS011;55128;50.230;18.944;2023-09-19T18:39:45;8.30;;;5.30;;
63534;SDS011;55128;50.230;18.944;2023-09-19T18:44:46;7.55;;;5.32;;
63534;SDS011;55128;50.230;18.944;2023-09-19T18:49:46;5.67;;;5.07;;
63534;SDS011;55128;50.230;18.944;2023-09-19T18:54:48;7.00;;;4.50;;
63534;SDS011;55128;50.230;18.944;2023-09-19T18:59:49;7.38;;;4.78;;
63534;SDS011;55128;50.230;18.944;2023-09-19T19:04:50;6.30;;;4.70;;
63534;SDS011;55128;50.230;18.944;2023-09-19T19:09:51;5.25;;;4.25;;
63534;SDS011;55128;50.230;18.944;2023-09-19T19:14:52;6.90;;;5.00;;
63534;SDS011;55128;50.230;18.944;2023-09-19T19:19:53;8.05;;;4.75;;
63534;SDS011;55128;50.230;18.944;2023-09-19T19:24:54;6.22;;;4.95;;
63534;SDS011;55128;50.230;18.944;2023-09-19T19:29:57;7.07;;;5.38;;
63534;SDS011;55128;50.230;18.944;2023-09-19T19:34:57;6.95;;;5.50;;
63534;SDS011;55128;50.230;18.944;2023-09-19T19:39:57;10.50;;;6.00;;
63534;SDS011;55128;50.230;18.944;2023-09-19T19:44:59;8.32;;;6.80;;
63534;SDS011;55128;50.230;18.944;2023-09-19T19:49:59;9.87;;;7.97;;
63534;SDS011;55128;50.230;18.944;2023-09-19T19:55:00;10.35;;;7.75;;
63534;SDS011;55128;50.230;18.944;2023-09-19T20:00:01;8.88;;;7.97;;
63534;SDS011;55128;50.230;18.944;2023-09-19T20:05:06;9.68;;;8.20;;
63534;SDS011;55128;50.230;18.944;2023-09-19T20:10:07;9.73;;;7.90;;
63534;SDS011;55128;50.230;18.944;2023-09-19T20:15:08;8.50;;;7.10;;
63534;SDS011;55128;50.230;18.944;2023-09-19T20:20:11;10.10;;;8.05;;
63534;SDS011;55128;50.230;18.944;2023-09-19T20:25:18;9.93;;;8.50;;
63534;SDS011;55128;50.230;18.944;2023-09-19T20:30:20;8.80;;;7.38;;
63534;SDS011;55128;50.230;18.944;2023-09-19T20:35:23;8.93;;;7.57;;
63534;SDS011;55128;50.230;18.944;2023-09-19T20:40:23;23.47;;;9.00;;
63534;SDS011;55128;50.230;18.944;2023-09-19T20:45:24;10.73;;;8.00;;
63534;SDS011;55128;50.230;18.944;2023-09-19T20:50:24;9.40;;;8.20;;
63534;SDS011;55128;50.230;18.944;2023-09-19T20:55:26;9.48;;;8.18;;
63534;SDS011;55128;50.230;18.944;2023-09-19T21:00:27;9.77;;;7.97;;
63534;SDS011;55128;50.230;18.944;2023-09-19T21:05:27;10.10;;;8.63;;
63534;SDS011;55128;50.230;18.944;2023-09-19T21:10:28;11.73;;;7.90;;
63534;SDS011;55128;50.230;18.944;2023-09-19T21:15:29;9.63;;;8.57;;
63534;SDS011;55128;50.230;18.944;2023-09-19T21:20:29;11.07;;;8.15;;
63534;SDS011;55128;50.230;18.944;2023-09-19T21:25:34;10.95;;;8.63;;
63534;SDS011;55128;50.230;18.944;2023-09-19T21:30:34;8.57;;;7.67;;
63534;SDS011;55128;50.230;18.944;2023-09-19T21:35:43;10.43;;;8.50;;
63534;SDS011;55128;50.230;18.944;2023-09-19T21:40:44;9.20;;;7.60;;
63534;SDS011;55128;50.230;18.944;2023-09-19T21:45:44;9.15;;;8.18;;
63534;SDS011;55128;50.230;18.944;2023-09-19T21:50:54;9.55;;;8.50;;
63534;SDS011;55128;50.230;18.944;2023-09-19T21:55:59;10.80;;;8.68;;
63534;SDS011;55128;50.230;18.944;2023-09-19T22:01:01;8.95;;;8.05;;
63534;SDS011;55128;50.230;18.944;2023-09-19T22:06:08;11.27;;;9.02;;
63534;SDS011;55128;50.230;18.944;2023-09-19T22:11:10;11.73;;;9.20;;
63534;SDS011;55128;50.230;18.944;2023-09-19T22:16:14;11.27;;;9.85;;
63534;SDS011;55128;50.230;18.944;2023-09-19T22:21:16;12.20;;;10.70;;
63534;SDS011;55128;50.230;18.944;2023-09-19T22:26:44;12.55;;;10.00;;
63534;SDS011;55128;50.230;18.944;2023-09-19T22:31:47;12.88;;;9.40;;
63534;SDS011;55128;50.230;18.944;2023-09-19T22:36:47;11.00;;;9.52;;
63534;SDS011;55128;50.230;18.944;2023-09-19T22:41:54;12.60;;;9.65;;
63534;SDS011;55128;50.230;18.944;2023-09-19T22:46:59;13.32;;;8.80;;
63534;SDS011;55128;50.230;18.944;2023-09-19T22:51:59;11.88;;;9.38;;
63534;SDS011;55128;50.230;18.944;2023-09-19T22:56:59;10.93;;;9.83;;
63534;SDS011;55128;50.230;18.944;2023-09-19T23:02:02;9.95;;;8.63;;
63534;SDS011;55128;50.230;18.944;2023-09-19T23:07:04;10.43;;;9.15;;
63534;SDS011;55128;50.230;18.944;2023-09-19T23:12:05;10.90;;;8.50;;
63534;SDS011;55128;50.230;18.944;2023-09-19T23:17:07;12.80;;;9.15;;
63534;SDS011;55128;50.230;18.944;2023-09-19T23:22:14;10.80;;;8.88;;
63534;SDS011;55128;50.230;18.944;2023-09-19T23:27:17;11.35;;;9.25;;
63534;SDS011;55128;50.230;18.944;2023-09-19T23:32:24;10.32;;;8.05;;
63534;SDS011;55128;50.230;18.944;2023-09-19T23:37:25;9.75;;;8.65;;
63534;SDS011;55128;50.230;18.944;2023-09-19T23:42:25;10.97;;;8.23;;
63534;SDS011;55128;50.230;18.944;2023-09-19T23:47:27;9.98;;;8.02;;
63534;SDS011;55128;50.230;18.944;2023-09-19T23:52:28;11.57;;;8.75;;
63534;SDS011;55128;50.230;18.944;2023-09-19T23:57:28;10.55;;;8.75;;
